Terminal Aerodrome Forecast
Issued by NWS Tuscon, AZ

Home | Current Version | Previous Version | Text Only | Print | Product List | Glossary On
Versions: 1 2 3 4 5 6 7 8 9 10 11 12
791
FTUS45 KTWC 250533
TAFTUS
TAF
KTUS 250533Z 2506/2606 16008KT P6SM SKC
     FM251600 22013G22KT P6SM SKC
     FM252100 23020G30KT P6SM SKC
     FM260300 27008KT P6SM SCT250=

USA.gov is the U.S. government's official web portal to all federal, state and local government web resources and services.